首页
METAR-TAF:

METAR-TAF

机场 :

Tri-City Airport

Parsons, 堪薩斯州, 美国

纬度: 37-19-40N, 经度: 095-30-15W, 海拔: 274米

当前天气观测

该预报发布于24分钟前的23:52 UTC
风速8节,风向北转西北
温度 0°C
湿度 59%
气压 1018 hPa
能見度: 16.1公里
天空无云

METAR: KPPF 092352Z AUTO 34008KT 10SM CLR 00/M07 A3007 RMK AO2 SLP185 T00001072 10044 20000 53037

时间: 18:16 (00:16 UTC)


TAF: 丢失

超过4000个机场的气象观测和天气预报(METAR&TAF报告)。

可查询的气象台以黄色和红色小点在地图上表示。

将鼠标移到小点上方,可查看气象台名称。

然后点击查看天气观测和预报。

如需切换地图:点击带黑十字的绿色按钮放大地图;点击带横线的绿色按钮缩小地图;或者点击绿色箭头查看邻近地区的地图。


METAR-TAF: